MET'MAP v2.0
soon released !

Expected late october,
this new version will be
more efficient, smarter,
and hosted on a brand new
server x3 powerfull...
...and still free !


Not compatible ?
Try the mobile version !

LOG IN : | Subscribe | Disclaimer | Who is Orbifly ? |
ICAO code :
Legend : VFR Marginal VFR IFR Intensive IFR Very Intensive IFR
Visi :
Ceiling :
>= 8 km
>= 3000ft
5 to 8 km
1000 to 3000 ft
1500m to 5 km
500 to 1000 ft
800 to 1500m
200 to 500 ft
< 800m
< 200 ft

METAR - EBBE Beauvechain AB - 04 Jun 2020 23:44 UTC
Data Sources :     NOAA   


- Airport Elevation : 370 ft
- No reported NOTAMs.


EBBE - Beauvechain AB

Latest METAR recorded : 2015/08/11 08:03 EBBE 110803Z VRB02KT 6000 FEW006 BKN180 19/17 Q1019 WHT WHT BECMG BLU
TAF TAF EBBE
Valid from the 04 at 13:00 until the 04 at 22:00 UTC


041141Z 0413/0422 32010KT 9999 SCT020 BKN030
TEMPO 0413/0418 32015G25KT 3800 -RA -SHRA SCT010 BKN015TCU

Source NOAA


MET'MAP, your aeronautical weather chart ! - Copyright ORBIFLY December 2007

Programming & Development : Alexandra Zaïnal
Co-Developer : Marc-Olivier Méhu
Technical & hardware support : Manuel Goepfert
Concept & Financing : Baudouin d'Aumeries